createdAt,value
2023-05-02T00:01:29.088Z,87.10
2023-05-02T00:03:55.905Z,87.10
2023-05-02T00:06:22.838Z,87.10
2023-05-02T00:08:52.592Z,87.20
2023-05-02T00:11:19.816Z,87.20
2023-05-02T00:13:48.793Z,87.10
2023-05-02T00:16:16.349Z,87.30
2023-05-02T00:18:43.581Z,87.20
2023-05-02T00:21:10.215Z,87.20
2023-05-02T00:23:36.995Z,87.30
2023-05-02T00:26:04.075Z,87.20
2023-05-02T00:28:33.852Z,87.20
2023-05-02T00:31:00.495Z,87.20
2023-05-02T00:33:28.427Z,86.90
2023-05-02T00:35:55.043Z,87.50
2023-05-02T00:38:24.064Z,87.40
2023-05-02T00:40:54.910Z,87.30
2023-05-02T00:43:23.972Z,87.50
2023-05-02T00:45:51.240Z,87.20
2023-05-02T00:48:20.654Z,87.20
2023-05-02T00:50:47.770Z,87.30
2023-05-02T00:53:17.459Z,87.30
2023-05-02T00:55:50.304Z,87.70
2023-05-02T00:58:19.420Z,87.70
2023-05-02T01:01:08.382Z,87.70
2023-05-02T01:03:44.481Z,87.70
2023-05-02T01:06:29.886Z,87.70
2023-05-02T01:09:03.047Z,87.50
2023-05-02T01:11:51.965Z,87.60
2023-05-02T01:14:21.025Z,87.60
2023-05-02T01:16:48.711Z,87.80
2023-05-02T01:19:38.858Z,87.60
2023-05-02T01:22:08.464Z,87.50
2023-05-02T01:24:43.205Z,87.60
2023-05-02T01:27:30.936Z,87.40
2023-05-02T01:29:58.788Z,87.70
2023-05-02T01:32:26.658Z,87.80
2023-05-02T01:34:55.087Z,87.80
2023-05-02T01:37:23.979Z,87.70
2023-05-02T01:39:52.853Z,87.70
2023-05-02T01:42:20.347Z,87.60
2023-05-02T01:44:51.572Z,87.90
2023-05-02T01:47:19.826Z,87.60
2023-05-02T01:49:46.965Z,87.60
2023-05-02T01:52:15.566Z,87.80
2023-05-02T01:54:42.866Z,87.60
2023-05-02T01:57:11.764Z,87.80
2023-05-02T01:59:40.457Z,87.80
2023-05-02T02:02:10.088Z,87.90
2023-05-02T02:04:43.399Z,87.60
2023-05-02T02:07:13.500Z,87.70
2023-05-02T02:09:40.571Z,87.90
2023-05-02T02:12:10.876Z,87.60
2023-05-02T02:14:40.440Z,88.00
2023-05-02T02:17:12.939Z,87.80
2023-05-02T02:19:40.717Z,88.10
2023-05-02T02:22:12.901Z,88.00
2023-05-02T02:24:40.810Z,88.10
2023-05-02T02:27:08.121Z,88.00
2023-05-02T02:29:35.574Z,87.60
2023-05-02T02:32:03.779Z,87.90
2023-05-02T02:34:31.130Z,88.00
2023-05-02T02:37:01.064Z,87.80
2023-05-02T02:39:39.909Z,87.90
2023-05-02T02:42:29.490Z,88.00
2023-05-02T02:45:14.472Z,88.10
2023-05-02T02:47:58.596Z,87.90
2023-05-02T02:50:51.520Z,88.10
2023-05-02T02:53:19.588Z,88.20
2023-05-02T02:55:58.790Z,87.80
2023-05-02T03:01:40.174Z,88.20
2023-05-02T03:04:08.058Z,88.10
2023-05-02T03:06:35.582Z,88.10
2023-05-02T03:09:02.556Z,88.00
2023-05-02T03:11:31.473Z,88.10
2023-05-02T03:13:59.739Z,88.10
2023-05-02T03:16:34.894Z,87.90
2023-05-02T03:19:01.842Z,87.90
2023-05-02T03:21:31.971Z,87.90
2023-05-02T03:24:06.995Z,88.10
2023-05-02T03:26:33.772Z,88.10
2023-05-02T03:29:00.660Z,88.30
2023-05-02T03:31:27.540Z,88.20
2023-05-02T03:33:54.989Z,88.30
2023-05-02T03:36:22.544Z,88.30
2023-05-02T03:38:49.757Z,88.30
2023-05-02T03:41:16.394Z,88.50
2023-05-02T03:43:44.055Z,88.20
2023-05-02T03:46:12.211Z,88.40
2023-05-02T03:48:39.163Z,88.20
2023-05-02T03:51:08.031Z,88.10
2023-05-02T03:53:40.383Z,88.10
2023-05-02T03:56:09.988Z,88.20
2023-05-02T03:58:36.722Z,88.30
2023-05-02T04:01:04.536Z,88.10
2023-05-02T04:03:32.355Z,87.90
2023-05-02T04:06:01.726Z,88.20
2023-05-02T04:08:28.464Z,88.20
2023-05-02T04:10:55.142Z,88.00
2023-05-02T04:13:23.258Z,88.10
2023-05-02T04:15:51.328Z,88.00
2023-05-02T04:18:22.375Z,87.80
2023-05-02T04:20:50.760Z,87.90
2023-05-02T04:23:19.439Z,87.60
2023-05-02T04:25:52.897Z,87.70
2023-05-02T04:28:20.664Z,87.60
2023-05-02T04:30:47.820Z,87.60
2023-05-02T04:33:14.901Z,87.30
2023-05-02T04:35:42.435Z,87.00
2023-05-02T04:38:09.692Z,86.60
2023-05-02T04:40:37.153Z,86.50
2023-05-02T04:43:03.848Z,86.50
2023-05-02T04:45:33.631Z,86.70
2023-05-02T04:48:00.795Z,86.60
2023-05-02T04:50:28.354Z,86.50
2023-05-02T04:52:56.214Z,86.30
2023-05-02T04:55:23.159Z,86.60
2023-05-02T04:57:52.782Z,86.50
2023-05-02T05:00:19.716Z,86.10
2023-05-02T05:02:46.606Z,86.30
2023-05-02T05:05:25.292Z,85.80
2023-05-02T05:07:52.810Z,85.50
2023-05-02T05:10:20.095Z,86.20
2023-05-02T05:12:47.562Z,85.80
2023-05-02T05:15:14.655Z,85.20
2023-05-02T05:17:42.477Z,85.30
2023-05-02T05:20:10.671Z,84.30
2023-05-02T05:22:41.930Z,84.80
2023-05-02T05:25:09.356Z,84.70
2023-05-02T05:27:37.145Z,84.30
2023-05-02T05:30:04.973Z,84.30
2023-05-02T05:32:34.134Z,84.00
2023-05-02T05:35:04.386Z,83.60
2023-05-02T05:37:31.309Z,83.50
2023-05-02T05:39:59.850Z,83.90
2023-05-02T05:42:28.015Z,84.40
2023-05-02T05:44:54.742Z,83.90
2023-05-02T05:47:24.447Z,84.10
2023-05-02T05:49:56.673Z,82.00
2023-05-02T05:52:23.595Z,82.90
2023-05-02T05:54:53.712Z,82.70
2023-05-02T05:57:22.004Z,83.10
2023-05-02T05:59:49.378Z,82.30
2023-05-02T06:02:17.818Z,83.20
2023-05-02T06:04:46.030Z,83.60
2023-05-02T06:07:13.060Z,83.30
2023-05-02T06:09:39.725Z,82.50
2023-05-02T06:12:07.260Z,81.80
2023-05-02T06:14:34.721Z,82.30
2023-05-02T06:17:04.901Z,82.50
2023-05-02T06:19:32.071Z,82.20
2023-05-02T06:21:59.101Z,81.40
2023-05-02T06:24:29.832Z,82.20
2023-05-02T06:26:57.995Z,81.50
2023-05-02T06:29:25.129Z,81.80
2023-05-02T06:31:55.248Z,81.90
2023-05-02T06:34:22.338Z,81.70
2023-05-02T06:37:00.050Z,81.70
2023-05-02T06:39:28.046Z,80.90
2023-05-02T06:41:58.407Z,80.50
2023-05-02T06:44:25.555Z,80.40
2023-05-02T06:46:52.690Z,79.60
2023-05-02T06:49:19.579Z,80.10
2023-05-02T06:51:48.664Z,79.10
2023-05-02T06:54:17.483Z,78.00
2023-05-02T06:56:50.252Z,78.10
2023-05-02T06:59:18.760Z,77.30
2023-05-02T07:01:45.979Z,77.20
2023-05-02T07:04:12.896Z,77.20
2023-05-02T07:06:40.258Z,77.40
2023-05-02T07:09:13.180Z,76.80
2023-05-02T07:11:40.920Z,76.90
2023-05-02T07:14:14.113Z,76.40
2023-05-02T07:16:40.865Z,76.70
2023-05-02T07:19:09.110Z,76.10
2023-05-02T07:21:36.076Z,75.40
2023-05-02T07:24:03.497Z,75.90
2023-05-02T07:26:30.332Z,74.80
2023-05-02T07:28:59.856Z,75.90
2023-05-02T07:31:26.735Z,75.70
2023-05-02T07:33:55.103Z,74.40
2023-05-02T07:36:22.665Z,74.80
2023-05-02T07:38:49.639Z,74.90
2023-05-02T07:41:19.542Z,74.40
2023-05-02T07:43:46.176Z,72.40
2023-05-02T07:46:15.807Z,72.80
2023-05-02T07:48:43.967Z,74.30
2023-05-02T07:51:11.445Z,72.50
2023-05-02T07:53:38.322Z,71.90
2023-05-02T07:56:09.553Z,72.10
2023-05-02T07:58:37.465Z,71.80
2023-05-02T08:01:04.694Z,69.90
2023-05-02T08:03:34.628Z,69.10
2023-05-02T08:06:02.266Z,70.40
2023-05-02T08:08:29.602Z,69.60
2023-05-02T08:10:56.245Z,69.40
2023-05-02T08:13:29.009Z,70.30
2023-05-02T08:15:58.427Z,71.20
2023-05-02T08:18:28.348Z,70.50
2023-05-02T08:20:56.182Z,70.00
2023-05-02T08:23:22.816Z,70.30
2023-05-02T08:25:50.062Z,69.80
2023-05-02T08:28:20.662Z,69.00
2023-05-02T08:30:48.950Z,68.30
2023-05-02T08:33:16.013Z,68.90
2023-05-02T08:35:45.066Z,68.80
2023-05-02T08:38:11.943Z,68.50
2023-05-02T08:40:42.662Z,68.80
2023-05-02T08:43:11.345Z,69.10
2023-05-02T08:45:43.522Z,68.30
2023-05-02T08:48:11.883Z,68.10
2023-05-02T08:50:46.154Z,66.20
2023-05-02T08:53:15.026Z,65.80
2023-05-02T08:55:42.274Z,66.60
2023-05-02T08:58:19.270Z,66.80
2023-05-02T09:00:47.394Z,68.00
2023-05-02T09:03:23.735Z,66.20
2023-05-02T09:05:55.440Z,66.90
2023-05-02T09:08:23.236Z,66.20
2023-05-02T09:10:53.054Z,65.50
2023-05-02T09:13:40.344Z,67.20
2023-05-02T09:16:13.690Z,65.80
2023-05-02T09:18:48.278Z,65.90
2023-05-02T09:21:17.987Z,64.10
2023-05-02T09:23:54.903Z,64.60
2023-05-02T09:26:24.668Z,65.10
2023-05-02T09:28:54.599Z,64.80
2023-05-02T09:31:55.726Z,63.90
2023-05-02T09:34:24.844Z,65.60
2023-05-02T09:36:56.947Z,66.30
2023-05-02T09:39:31.795Z,67.10
2023-05-02T09:41:59.387Z,66.50
2023-05-02T09:44:32.863Z,65.60
2023-05-02T09:47:02.204Z,66.30
2023-05-02T09:49:46.672Z,65.20
2023-05-02T09:52:15.419Z,64.20
2023-05-02T09:54:42.464Z,63.40
2023-05-02T09:57:11.308Z,64.60
2023-05-02T09:59:41.832Z,64.40
2023-05-02T10:02:11.576Z,62.20
2023-05-02T10:04:40.459Z,62.60
2023-05-02T10:07:10.563Z,63.70
2023-05-02T10:09:42.105Z,64.70
2023-05-02T10:12:12.811Z,62.30
2023-05-02T10:14:44.529Z,61.70
2023-05-02T10:17:17.353Z,63.20
2023-05-02T10:19:56.872Z,64.40
2023-05-02T10:22:24.386Z,64.20
2023-05-02T10:24:52.726Z,64.10
2023-05-02T10:27:27.314Z,64.10
2023-05-02T10:29:54.864Z,63.80
2023-05-02T10:32:22.951Z,63.40
2023-05-02T10:34:50.539Z,63.30
2023-05-02T10:37:18.493Z,61.40
2023-05-02T10:39:45.855Z,61.90
2023-05-02T10:42:13.504Z,62.10
2023-05-02T10:44:41.594Z,60.30
2023-05-02T10:47:27.506Z,61.00
2023-05-02T10:50:00.811Z,59.80
2023-05-02T10:52:35.463Z,60.10
2023-05-02T10:55:16.315Z,59.80
2023-05-02T10:58:03.043Z,61.10
2023-05-02T11:00:31.908Z,63.50
2023-05-02T11:02:59.241Z,62.90
2023-05-02T11:05:28.346Z,61.00
2023-05-02T11:08:20.180Z,63.00
2023-05-02T11:10:48.117Z,62.10
2023-05-02T11:13:16.136Z,61.90
2023-05-02T11:15:50.326Z,64.00
2023-05-02T11:18:18.723Z,63.00
2023-05-02T11:20:48.036Z,63.00
2023-05-02T11:23:15.596Z,61.70
2023-05-02T11:25:58.220Z,59.30
2023-05-02T11:28:37.391Z,61.80
2023-05-02T11:31:30.286Z,60.70
2023-05-02T11:34:03.910Z,59.80
2023-05-02T11:36:34.428Z,60.60
2023-05-02T11:39:02.301Z,59.20
2023-05-02T11:41:48.492Z,59.50
2023-05-02T11:44:15.994Z,60.30
2023-05-02T11:46:46.109Z,57.80
2023-05-02T11:49:14.819Z,57.20
2023-05-02T11:51:41.765Z,59.20
2023-05-02T11:54:09.137Z,58.60
2023-05-02T11:56:36.743Z,59.50
2023-05-02T11:59:04.931Z,58.10
2023-05-02T12:01:32.291Z,55.90
2023-05-02T12:04:08.260Z,57.00
2023-05-02T12:06:35.856Z,56.60
2023-05-02T12:09:10.791Z,56.60
2023-05-02T12:11:38.840Z,56.70
2023-05-02T12:14:06.894Z,54.90
2023-05-02T12:16:36.308Z,55.10
2023-05-02T12:19:05.746Z,54.50
2023-05-02T12:21:33.692Z,54.90
2023-05-02T12:24:04.044Z,54.50
2023-05-02T12:26:35.158Z,55.40
2023-05-02T12:29:03.083Z,55.80
2023-05-02T12:31:32.058Z,57.40
2023-05-02T12:34:00.546Z,56.20
2023-05-02T12:36:31.196Z,54.60
2023-05-02T12:39:00.215Z,52.70
2023-05-02T12:41:38.600Z,54.70
2023-05-02T12:44:06.104Z,53.90
2023-05-02T12:46:33.778Z,54.80
2023-05-02T12:49:04.205Z,55.40
2023-05-02T12:51:33.174Z,56.60
2023-05-02T12:54:00.354Z,57.60
2023-05-02T12:56:32.624Z,59.70
2023-05-02T12:59:05.397Z,58.40
2023-05-02T13:01:35.890Z,59.50
2023-05-02T13:04:06.745Z,59.20
2023-05-02T13:06:35.299Z,60.10
2023-05-02T13:09:02.569Z,60.50
2023-05-02T13:11:29.534Z,59.50
2023-05-02T13:13:57.526Z,58.90
2023-05-02T13:16:30.669Z,59.10
2023-05-02T13:18:57.822Z,60.30
2023-05-02T13:21:24.720Z,58.90
2023-05-02T13:23:56.235Z,60.10
2023-05-02T13:26:23.037Z,60.20
2023-05-02T13:28:52.145Z,61.60
2023-05-02T13:31:19.508Z,62.90
2023-05-02T13:33:47.268Z,63.70
2023-05-02T13:36:14.147Z,62.80
2023-05-02T13:38:42.141Z,63.40
2023-05-02T13:41:10.771Z,64.30
2023-05-02T13:43:37.857Z,62.20
2023-05-02T13:46:05.168Z,61.70
2023-05-02T13:48:33.664Z,61.20
2023-05-02T13:51:01.490Z,60.40
2023-05-02T13:53:28.162Z,60.50
2023-05-02T13:55:55.738Z,60.10
2023-05-02T13:58:22.340Z,60.40
2023-05-02T14:00:49.563Z,59.80
2023-05-02T14:03:17.743Z,59.80
2023-05-02T14:05:44.529Z,58.40
2023-05-02T14:08:11.628Z,59.90
2023-05-02T14:10:40.116Z,59.10
2023-05-02T14:13:13.142Z,57.90
2023-05-02T14:15:40.157Z,58.20
2023-05-02T14:18:07.604Z,58.10
2023-05-02T14:20:34.363Z,59.80
2023-05-02T14:23:01.286Z,60.00
2023-05-02T14:25:28.023Z,60.40
2023-05-02T14:27:54.819Z,59.50
2023-05-02T14:30:22.606Z,59.50
2023-05-02T14:32:50.388Z,59.70
2023-05-02T14:35:17.129Z,58.90
2023-05-02T14:37:45.653Z,58.60
2023-05-02T14:40:14.253Z,59.40
2023-05-02T14:42:41.134Z,60.50
2023-05-02T14:45:08.565Z,60.40
2023-05-02T14:47:38.558Z,59.50
2023-05-02T14:50:08.551Z,59.90
2023-05-02T14:52:35.179Z,59.40
2023-05-02T14:55:09.829Z,59.90
2023-05-02T14:57:36.555Z,60.00
2023-05-02T15:00:04.613Z,59.80
2023-05-02T15:02:33.447Z,60.50
2023-05-02T15:05:00.276Z,61.80
2023-05-02T15:07:28.329Z,63.20
2023-05-02T15:09:57.284Z,62.50
2023-05-02T15:12:33.592Z,63.10
2023-05-02T15:15:00.475Z,64.00
2023-05-02T15:17:27.759Z,63.90
2023-05-02T15:19:58.366Z,64.10
2023-05-02T15:22:26.518Z,64.30
2023-05-02T15:24:58.168Z,63.10
2023-05-02T15:27:26.789Z,63.10
2023-05-02T15:29:55.455Z,64.60
2023-05-02T15:32:25.799Z,64.10
2023-05-02T15:34:55.540Z,62.90
2023-05-02T15:37:22.452Z,62.30
2023-05-02T15:39:50.654Z,63.50
2023-05-02T15:42:17.744Z,61.70
2023-05-02T15:44:45.484Z,61.90
2023-05-02T15:47:12.412Z,62.10
2023-05-02T15:49:39.876Z,63.70
2023-05-02T15:52:06.521Z,63.90
2023-05-02T15:54:33.417Z,65.30
2023-05-02T15:57:05.612Z,64.80
2023-05-02T15:59:33.648Z,65.20
2023-05-02T16:02:00.528Z,65.80
2023-05-02T16:04:29.238Z,65.80
2023-05-02T16:07:03.302Z,66.80
2023-05-02T16:12:08.264Z,66.00
2023-05-02T16:14:34.974Z,67.10
2023-05-02T16:17:01.780Z,66.30
2023-05-02T16:19:33.994Z,66.60
2023-05-02T16:22:01.096Z,66.50
2023-05-02T16:24:32.506Z,67.30
2023-05-02T16:27:03.070Z,67.70
2023-05-02T16:29:31.815Z,68.20
2023-05-02T16:31:59.738Z,68.10
2023-05-02T16:34:30.978Z,67.70
2023-05-02T16:36:57.658Z,67.80
2023-05-02T16:39:24.610Z,68.10
2023-05-02T16:42:02.806Z,67.80
2023-05-02T16:44:32.493Z,67.50
2023-05-02T16:47:00.571Z,69.00
2023-05-02T16:49:27.738Z,69.60
2023-05-02T16:51:56.034Z,70.00
2023-05-02T16:54:23.516Z,69.70
2023-05-02T16:56:50.573Z,68.20
2023-05-02T16:59:17.313Z,69.20
2023-05-02T17:01:44.213Z,69.20
2023-05-02T17:04:11.305Z,70.00
2023-05-02T17:06:38.100Z,69.60
2023-05-02T17:09:04.885Z,70.60
2023-05-02T17:11:31.604Z,70.60
2023-05-02T17:13:58.271Z,71.00
2023-05-02T17:16:26.836Z,71.40
2023-05-02T17:18:57.018Z,71.50
2023-05-02T17:21:23.709Z,70.50
2023-05-02T17:23:50.465Z,70.90
2023-05-02T17:26:28.876Z,71.80
2023-05-02T17:28:56.429Z,72.10
2023-05-02T17:31:24.139Z,71.50
2023-05-02T17:33:50.920Z,73.60
2023-05-02T17:36:17.910Z,73.20
2023-05-02T17:38:45.466Z,72.70
2023-05-02T17:41:12.397Z,74.20
2023-05-02T17:43:39.338Z,74.50
2023-05-02T17:46:10.549Z,74.40
2023-05-02T17:48:37.279Z,74.20
2023-05-02T17:51:05.591Z,75.10
2023-05-02T17:53:32.772Z,74.70
2023-05-02T17:56:01.966Z,73.70
2023-05-02T17:58:32.508Z,74.70
2023-05-02T18:01:07.135Z,75.20
2023-05-02T18:03:34.241Z,75.10
2023-05-02T18:06:04.879Z,74.80
2023-05-02T18:08:35.570Z,75.20
2023-05-02T18:11:03.660Z,73.30
2023-05-02T18:13:31.209Z,75.50
2023-05-02T18:16:00.945Z,75.80
2023-05-02T18:18:27.814Z,75.10
2023-05-02T18:20:56.960Z,75.40
2023-05-02T18:23:23.982Z,76.20
2023-05-02T18:25:53.975Z,75.70
2023-05-02T18:28:20.668Z,76.20
2023-05-02T18:30:47.309Z,76.50
2023-05-02T18:33:14.298Z,77.20
2023-05-02T18:35:47.794Z,76.40
2023-05-02T18:38:15.556Z,77.20
2023-05-02T18:40:42.771Z,77.10
2023-05-02T18:43:10.577Z,78.00
2023-05-02T18:45:37.246Z,78.40
2023-05-02T18:48:05.594Z,78.50
2023-05-02T18:50:35.964Z,78.80
2023-05-02T18:53:02.864Z,79.00
2023-05-02T18:55:31.757Z,79.00
2023-05-02T18:58:01.449Z,78.50
2023-05-02T19:00:32.865Z,78.60
2023-05-02T19:03:01.084Z,79.70
2023-05-02T19:05:28.195Z,79.30
2023-05-02T19:07:58.308Z,79.90
2023-05-02T19:10:26.408Z,80.10
2023-05-02T19:12:53.145Z,79.80
2023-05-02T19:15:21.595Z,80.30
2023-05-02T19:17:49.800Z,80.70
2023-05-02T19:20:17.696Z,80.80
2023-05-02T19:22:46.664Z,79.80
2023-05-02T19:25:13.626Z,80.80
2023-05-02T19:27:42.205Z,80.90
2023-05-02T19:30:10.869Z,80.90
2023-05-02T19:32:40.704Z,80.90
2023-05-02T19:35:09.122Z,81.20
2023-05-02T19:37:37.109Z,81.20
2023-05-02T19:40:05.081Z,81.70
2023-05-02T19:42:32.214Z,82.50
2023-05-02T19:44:59.127Z,81.70
2023-05-02T19:47:30.737Z,81.80
2023-05-02T19:50:04.778Z,82.00
2023-05-02T19:52:31.433Z,82.40
2023-05-02T19:54:58.791Z,82.90
2023-05-02T19:57:25.589Z,82.80
2023-05-02T19:59:53.001Z,82.60
2023-05-02T20:02:21.837Z,83.10
2023-05-02T20:04:48.844Z,82.70
2023-05-02T20:07:15.833Z,82.20
2023-05-02T20:09:42.859Z,83.20
2023-05-02T20:12:09.537Z,83.50
2023-05-02T20:14:38.045Z,83.00
2023-05-02T20:17:05.786Z,82.70
2023-05-02T20:19:33.990Z,83.00
2023-05-02T20:22:02.161Z,84.00
2023-05-02T20:24:28.788Z,83.40
2023-05-02T20:26:57.892Z,82.90
2023-05-02T20:29:25.675Z,82.50
2023-05-02T20:31:54.418Z,83.80
2023-05-02T20:34:23.763Z,84.00
2023-05-02T20:36:52.763Z,83.70
2023-05-02T20:39:22.016Z,83.90
2023-05-02T20:41:51.962Z,84.00
2023-05-02T20:44:20.955Z,83.60
2023-05-02T20:46:47.887Z,84.40
2023-05-02T20:49:16.862Z,84.40
2023-05-02T20:51:46.416Z,84.30
2023-05-02T20:54:13.957Z,83.90
2023-05-02T20:56:40.938Z,83.50
2023-05-02T20:59:08.061Z,83.60
2023-05-02T21:01:36.233Z,84.00
2023-05-02T21:04:04.626Z,84.00
2023-05-02T21:06:34.237Z,83.60
2023-05-02T21:09:02.331Z,83.80
2023-05-02T21:11:30.467Z,84.60
2023-05-02T21:13:57.961Z,84.50
2023-05-02T21:16:29.380Z,84.70
2023-05-02T21:18:56.272Z,84.40
2023-05-02T21:21:23.009Z,84.50
2023-05-02T21:23:54.093Z,84.80
2023-05-02T21:26:22.042Z,84.60
2023-05-02T21:28:50.969Z,84.90
2023-05-02T21:31:21.185Z,85.40
2023-05-02T21:33:47.984Z,85.00
2023-05-02T21:36:15.468Z,84.90
2023-05-02T21:38:43.322Z,85.00
2023-05-02T21:41:10.613Z,84.90
2023-05-02T21:43:40.549Z,84.70
2023-05-02T21:46:07.626Z,84.50
2023-05-02T21:48:34.965Z,84.90
2023-05-02T21:51:07.620Z,85.00
2023-05-02T21:53:36.580Z,85.30
2023-05-02T21:56:04.025Z,85.30
2023-05-02T21:58:34.990Z,84.60
2023-05-02T22:01:03.224Z,84.50
2023-05-02T22:03:30.841Z,84.50
2023-05-02T22:05:58.267Z,85.10
2023-05-02T22:08:25.226Z,85.80
2023-05-02T22:10:53.202Z,86.40
2023-05-02T22:13:21.288Z,86.00
2023-05-02T22:15:48.693Z,85.60
2023-05-02T22:18:16.790Z,86.30
2023-05-02T22:20:45.218Z,85.50
2023-05-02T22:23:12.193Z,86.50
2023-05-02T22:25:45.587Z,86.10
2023-05-02T22:28:16.658Z,86.50
2023-05-02T22:30:43.714Z,86.60
2023-05-02T22:33:14.372Z,86.40
2023-05-02T22:35:41.242Z,86.40
2023-05-02T22:38:12.295Z,85.90
2023-05-02T22:40:39.330Z,85.40
2023-05-02T22:43:07.029Z,85.50
2023-05-02T22:45:37.190Z,85.60
2023-05-02T22:48:05.170Z,86.20
2023-05-02T22:50:35.135Z,85.90
2023-05-02T22:53:06.396Z,85.70
2023-05-02T22:55:40.537Z,86.20
2023-05-02T22:58:11.137Z,86.20
2023-05-02T23:00:41.812Z,86.10
2023-05-02T23:03:11.778Z,86.60
2023-05-02T23:05:42.738Z,86.50
2023-05-02T23:08:13.574Z,85.80
2023-05-02T23:10:40.516Z,86.90
2023-05-02T23:13:07.449Z,85.30
2023-05-02T23:15:36.638Z,86.20
2023-05-02T23:18:03.958Z,85.60
2023-05-02T23:20:34.792Z,86.10
2023-05-02T23:23:01.598Z,86.50
2023-05-02T23:25:39.195Z,85.50
2023-05-02T23:28:13.806Z,85.70
2023-05-02T23:30:45.998Z,85.60
2023-05-02T23:33:14.156Z,86.50
2023-05-02T23:35:40.913Z,86.00
2023-05-02T23:38:13.125Z,86.60
2023-05-02T23:40:39.832Z,86.70
2023-05-02T23:43:08.313Z,86.70
2023-05-02T23:45:36.316Z,86.80
2023-05-02T23:48:03.233Z,86.90
2023-05-02T23:50:31.924Z,86.50
2023-05-02T23:52:59.293Z,87.20
2023-05-02T23:55:26.503Z,86.70
2023-05-02T23:58:01.543Z,86.60
